sensor_id;sensor_type;location;lat;lon;timestamp;temperature;humidity
13482;DHT22;6813;60.352;15.746;2023-08-20T00:01:28;16.10;99.90
13482;DHT22;6813;60.352;15.746;2023-08-20T00:03:54;16.20;99.90
13482;DHT22;6813;60.352;15.746;2023-08-20T00:06:21;16.10;99.90
13482;DHT22;6813;60.352;15.746;2023-08-20T00:08:47;16.10;99.90
13482;DHT22;6813;60.352;15.746;2023-08-20T00:11:13;16.10;99.90
13482;DHT22;6813;60.352;15.746;2023-08-20T00:13:39;16.10;99.90
13482;DHT22;6813;60.352;15.746;2023-08-20T00:16:05;16.10;99.90
13482;DHT22;6813;60.352;15.746;2023-08-20T00:18:31;16.20;99.90
13482;DHT22;6813;60.352;15.746;2023-08-20T00:20:57;16.20;99.90
13482;DHT22;6813;60.352;15.746;2023-08-20T00:23:23;16.30;99.90
13482;DHT22;6813;60.352;15.746;2023-08-20T00:25:49;16.30;99.90
13482;DHT22;6813;60.352;15.746;2023-08-20T00:28:15;16.30;99.90
13482;DHT22;6813;60.352;15.746;2023-08-20T00:30:41;16.30;99.90
13482;DHT22;6813;60.352;15.746;2023-08-20T00:33:06;16.10;99.90
13482;DHT22;6813;60.352;15.746;2023-08-20T00:35:32;15.90;99.90
13482;DHT22;6813;60.352;15.746;2023-08-20T00:37:58;15.90;99.90
13482;DHT22;6813;60.352;15.746;2023-08-20T00:40:24;15.90;99.90
13482;DHT22;6813;60.352;15.746;2023-08-20T00:42:49;15.90;99.90
13482;DHT22;6813;60.352;15.746;2023-08-20T00:45:16;15.50;99.90
13482;DHT22;6813;60.352;15.746;2023-08-20T00:47:42;15.40;99.90
13482;DHT22;6813;60.352;15.746;2023-08-20T00:50:09;15.10;99.90
13482;DHT22;6813;60.352;15.746;2023-08-20T00:52:35;15.00;99.90
13482;DHT22;6813;60.352;15.746;2023-08-20T00:55:06;14.80;99.90
13482;DHT22;6813;60.352;15.746;2023-08-20T00:57:33;14.80;99.90
13482;DHT22;6813;60.352;15.746;2023-08-20T01:00:00;14.70;99.90
13482;DHT22;6813;60.352;15.746;2023-08-20T01:02:26;14.70;99.90
13482;DHT22;6813;60.352;15.746;2023-08-20T01:04:52;15.00;99.90
13482;DHT22;6813;60.352;15.746;2023-08-20T01:10:34;15.30;99.90
13482;DHT22;6813;60.352;15.746;2023-08-20T01:13:02;15.10;99.90
13482;DHT22;6813;60.352;15.746;2023-08-20T01:15:29;15.10;99.90
13482;DHT22;6813;60.352;15.746;2023-08-20T01:17:55;15.00;99.90
13482;DHT22;6813;60.352;15.746;2023-08-20T01:20:27;14.80;99.90
13482;DHT22;6813;60.352;15.746;2023-08-20T01:23:08;14.80;99.90
13482;DHT22;6813;60.352;15.746;2023-08-20T01:25:55;14.70;99.90
13482;DHT22;6813;60.352;15.746;2023-08-20T01:30:51;14.20;99.90
13482;DHT22;6813;60.352;15.746;2023-08-20T01:33:19;14.00;99.90
13482;DHT22;6813;60.352;15.746;2023-08-20T01:35:44;14.00;99.90
13482;DHT22;6813;60.352;15.746;2023-08-20T01:38:10;14.00;99.90
13482;DHT22;6813;60.352;15.746;2023-08-20T01:40:36;13.90;99.90
13482;DHT22;6813;60.352;15.746;2023-08-20T01:43:02;13.90;99.90
13482;DHT22;6813;60.352;15.746;2023-08-20T01:45:27;14.00;99.90
13482;DHT22;6813;60.352;15.746;2023-08-20T01:47:53;14.20;99.90
13482;DHT22;6813;60.352;15.746;2023-08-20T01:50:19;14.20;99.90
13482;DHT22;6813;60.352;15.746;2023-08-20T01:52:44;14.30;99.90
13482;DHT22;6813;60.352;15.746;2023-08-20T01:55:11;14.30;99.90
13482;DHT22;6813;60.352;15.746;2023-08-20T01:57:37;14.50;99.90
13482;DHT22;6813;60.352;15.746;2023-08-20T02:00:03;14.50;99.90
13482;DHT22;6813;60.352;15.746;2023-08-20T02:02:30;14.50;99.90
13482;DHT22;6813;60.352;15.746;2023-08-20T02:04:56;14.40;99.90
13482;DHT22;6813;60.352;15.746;2023-08-20T02:07:22;14.40;99.90
13482;DHT22;6813;60.352;15.746;2023-08-20T02:09:48;14.30;99.90
13482;DHT22;6813;60.352;15.746;2023-08-20T02:12:14;14.20;99.90
13482;DHT22;6813;60.352;15.746;2023-08-20T02:14:39;14.20;99.90
13482;DHT22;6813;60.352;15.746;2023-08-20T02:17:06;14.20;99.90
13482;DHT22;6813;60.352;15.746;2023-08-20T02:19:32;14.30;99.90
13482;DHT22;6813;60.352;15.746;2023-08-20T02:21:58;14.30;99.90
13482;DHT22;6813;60.352;15.746;2023-08-20T02:24:24;14.30;99.90
13482;DHT22;6813;60.352;15.746;2023-08-20T02:26:49;14.40;99.90
13482;DHT22;6813;60.352;15.746;2023-08-20T02:29:15;14.40;99.90
13482;DHT22;6813;60.352;15.746;2023-08-20T02:31:41;14.30;99.90
13482;DHT22;6813;60.352;15.746;2023-08-20T02:34:06;14.30;99.90
13482;DHT22;6813;60.352;15.746;2023-08-20T02:36:32;14.30;99.90
13482;DHT22;6813;60.352;15.746;2023-08-20T02:38:57;14.40;99.90
13482;DHT22;6813;60.352;15.746;2023-08-20T02:41:23;14.50;99.90
13482;DHT22;6813;60.352;15.746;2023-08-20T02:43:49;14.70;99.90
13482;DHT22;6813;60.352;15.746;2023-08-20T02:46:14;15.00;99.90
13482;DHT22;6813;60.352;15.746;2023-08-20T02:48:40;15.10;99.90
13482;DHT22;6813;60.352;15.746;2023-08-20T02:51:06;15.20;99.90
13482;DHT22;6813;60.352;15.746;2023-08-20T02:53:32;15.20;99.90
13482;DHT22;6813;60.352;15.746;2023-08-20T02:55:58;15.30;99.90
13482;DHT22;6813;60.352;15.746;2023-08-20T02:58:23;15.30;99.90
13482;DHT22;6813;60.352;15.746;2023-08-20T03:00:49;15.30;99.90
13482;DHT22;6813;60.352;15.746;2023-08-20T03:03:15;15.40;99.90
13482;DHT22;6813;60.352;15.746;2023-08-20T03:05:41;15.50;99.90
13482;DHT22;6813;60.352;15.746;2023-08-20T03:08:07;15.40;99.90
13482;DHT22;6813;60.352;15.746;2023-08-20T03:10:34;15.40;99.90
13482;DHT22;6813;60.352;15.746;2023-08-20T03:13:01;15.50;99.90
13482;DHT22;6813;60.352;15.746;2023-08-20T03:15:30;15.50;99.90
13482;DHT22;6813;60.352;15.746;2023-08-20T03:17:56;15.60;99.90
13482;DHT22;6813;60.352;15.746;2023-08-20T03:20:22;15.60;99.90
13482;DHT22;6813;60.352;15.746;2023-08-20T03:22:48;15.70;99.90
13482;DHT22;6813;60.352;15.746;2023-08-20T03:25:14;15.70;99.90
13482;DHT22;6813;60.352;15.746;2023-08-20T03:27:39;15.70;99.90
13482;DHT22;6813;60.352;15.746;2023-08-20T03:30:06;15.80;99.90
13482;DHT22;6813;60.352;15.746;2023-08-20T03:32:32;15.70;99.90
13482;DHT22;6813;60.352;15.746;2023-08-20T03:34:57;15.60;99.90
13482;DHT22;6813;60.352;15.746;2023-08-20T03:37:25;15.50;99.90
13482;DHT22;6813;60.352;15.746;2023-08-20T03:39:51;15.60;99.90
13482;DHT22;6813;60.352;15.746;2023-08-20T03:42:17;15.60;99.90
13482;DHT22;6813;60.352;15.746;2023-08-20T03:44:43;15.60;99.90
13482;DHT22;6813;60.352;15.746;2023-08-20T03:47:09;15.60;99.90
13482;DHT22;6813;60.352;15.746;2023-08-20T03:49:34;15.70;99.90
13482;DHT22;6813;60.352;15.746;2023-08-20T03:52:00;15.70;99.90
13482;DHT22;6813;60.352;15.746;2023-08-20T03:54:28;15.80;99.90
13482;DHT22;6813;60.352;15.746;2023-08-20T03:56:54;15.80;99.90
13482;DHT22;6813;60.352;15.746;2023-08-20T03:59:20;15.90;99.90
13482;DHT22;6813;60.352;15.746;2023-08-20T04:01:46;15.90;99.90
13482;DHT22;6813;60.352;15.746;2023-08-20T04:04:11;15.80;99.90
13482;DHT22;6813;60.352;15.746;2023-08-20T04:06:37;15.70;99.90
13482;DHT22;6813;60.352;15.746;2023-08-20T04:09:03;15.70;99.90
13482;DHT22;6813;60.352;15.746;2023-08-20T04:11:29;15.70;99.90
13482;DHT22;6813;60.352;15.746;2023-08-20T04:13:54;15.80;99.90
13482;DHT22;6813;60.352;15.746;2023-08-20T04:16:20;15.80;99.90
13482;DHT22;6813;60.352;15.746;2023-08-20T04:18:46;15.70;99.90
13482;DHT22;6813;60.352;15.746;2023-08-20T04:21:12;15.70;99.90
13482;DHT22;6813;60.352;15.746;2023-08-20T04:23:37;15.80;99.90
13482;DHT22;6813;60.352;15.746;2023-08-20T04:26:03;15.70;99.90
13482;DHT22;6813;60.352;15.746;2023-08-20T04:28:29;15.70;99.90
13482;DHT22;6813;60.352;15.746;2023-08-20T04:30:54;15.60;99.90
13482;DHT22;6813;60.352;15.746;2023-08-20T04:33:21;15.50;99.90
13482;DHT22;6813;60.352;15.746;2023-08-20T04:35:49;15.60;99.90
13482;DHT22;6813;60.352;15.746;2023-08-20T04:38:17;15.60;99.90
13482;DHT22;6813;60.352;15.746;2023-08-20T04:40:46;15.80;99.90
13482;DHT22;6813;60.352;15.746;2023-08-20T04:43:13;15.80;99.90
13482;DHT22;6813;60.352;15.746;2023-08-20T04:45:38;15.80;99.90
13482;DHT22;6813;60.352;15.746;2023-08-20T04:48:04;15.90;99.90
13482;DHT22;6813;60.352;15.746;2023-08-20T04:50:30;15.90;99.90
13482;DHT22;6813;60.352;15.746;2023-08-20T04:52:56;15.90;99.90
13482;DHT22;6813;60.352;15.746;2023-08-20T04:55:24;15.80;99.90
13482;DHT22;6813;60.352;15.746;2023-08-20T04:57:50;15.90;99.90
13482;DHT22;6813;60.352;15.746;2023-08-20T05:00:15;15.90;99.90
13482;DHT22;6813;60.352;15.746;2023-08-20T05:02:41;16.00;99.90
13482;DHT22;6813;60.352;15.746;2023-08-20T05:05:07;16.00;99.90
13482;DHT22;6813;60.352;15.746;2023-08-20T05:07:33;15.90;99.90
13482;DHT22;6813;60.352;15.746;2023-08-20T05:09:58;15.80;99.90
13482;DHT22;6813;60.352;15.746;2023-08-20T05:12:24;15.90;99.90
13482;DHT22;6813;60.352;15.746;2023-08-20T05:14:50;15.80;99.90
13482;DHT22;6813;60.352;15.746;2023-08-20T05:17:15;15.90;99.90
13482;DHT22;6813;60.352;15.746;2023-08-20T05:19:41;15.90;99.90
13482;DHT22;6813;60.352;15.746;2023-08-20T05:22:07;15.90;99.90
13482;DHT22;6813;60.352;15.746;2023-08-20T05:24:33;15.90;99.90
13482;DHT22;6813;60.352;15.746;2023-08-20T05:27:08;15.90;99.90
13482;DHT22;6813;60.352;15.746;2023-08-20T05:29:35;15.90;99.90
13482;DHT22;6813;60.352;15.746;2023-08-20T05:32:01;16.00;99.90
13482;DHT22;6813;60.352;15.746;2023-08-20T05:34:27;16.00;99.90
13482;DHT22;6813;60.352;15.746;2023-08-20T05:36:53;16.10;99.90
13482;DHT22;6813;60.352;15.746;2023-08-20T05:39:18;16.10;99.90
13482;DHT22;6813;60.352;15.746;2023-08-20T05:41:44;16.20;99.90
13482;DHT22;6813;60.352;15.746;2023-08-20T05:44:10;16.20;99.90
13482;DHT22;6813;60.352;15.746;2023-08-20T05:46:36;16.30;99.90
13482;DHT22;6813;60.352;15.746;2023-08-20T05:49:02;16.40;99.90
13482;DHT22;6813;60.352;15.746;2023-08-20T05:51:27;16.40;99.90
13482;DHT22;6813;60.352;15.746;2023-08-20T05:53:53;16.40;99.90
13482;DHT22;6813;60.352;15.746;2023-08-20T05:56:19;16.30;99.90
13482;DHT22;6813;60.352;15.746;2023-08-20T05:58:44;16.10;99.90
13482;DHT22;6813;60.352;15.746;2023-08-20T06:01:11;16.10;99.90
13482;DHT22;6813;60.352;15.746;2023-08-20T06:03:36;16.10;99.90
13482;DHT22;6813;60.352;15.746;2023-08-20T06:06:02;16.10;99.90
13482;DHT22;6813;60.352;15.746;2023-08-20T06:08:28;15.90;99.90
13482;DHT22;6813;60.352;15.746;2023-08-20T06:10:54;15.70;99.90
13482;DHT22;6813;60.352;15.746;2023-08-20T06:13:19;15.40;99.90
13482;DHT22;6813;60.352;15.746;2023-08-20T06:15:45;15.20;99.90
13482;DHT22;6813;60.352;15.746;2023-08-20T06:18:11;15.30;99.90
13482;DHT22;6813;60.352;15.746;2023-08-20T06:20:36;15.30;99.90
13482;DHT22;6813;60.352;15.746;2023-08-20T06:23:02;15.20;99.90
13482;DHT22;6813;60.352;15.746;2023-08-20T06:25:28;15.20;99.90
13482;DHT22;6813;60.352;15.746;2023-08-20T06:27:54;15.20;99.90
13482;DHT22;6813;60.352;15.746;2023-08-20T06:30:20;15.10;99.90
13482;DHT22;6813;60.352;15.746;2023-08-20T06:32:45;15.00;99.90
13482;DHT22;6813;60.352;15.746;2023-08-20T06:35:11;15.00;99.90
13482;DHT22;6813;60.352;15.746;2023-08-20T06:37:38;15.00;99.90
13482;DHT22;6813;60.352;15.746;2023-08-20T06:40:06;15.00;99.90
13482;DHT22;6813;60.352;15.746;2023-08-20T06:42:32;14.90;99.90
13482;DHT22;6813;60.352;15.746;2023-08-20T06:44:59;15.00;99.90
13482;DHT22;6813;60.352;15.746;2023-08-20T06:47:24;15.10;99.90
13482;DHT22;6813;60.352;15.746;2023-08-20T06:49:50;15.10;99.90
13482;DHT22;6813;60.352;15.746;2023-08-20T06:52:16;15.00;99.90
13482;DHT22;6813;60.352;15.746;2023-08-20T06:54:42;15.00;99.90
13482;DHT22;6813;60.352;15.746;2023-08-20T06:57:08;14.90;99.90
13482;DHT22;6813;60.352;15.746;2023-08-20T06:59:33;14.90;99.90
13482;DHT22;6813;60.352;15.746;2023-08-20T07:01:59;14.90;99.90
13482;DHT22;6813;60.352;15.746;2023-08-20T07:04:25;15.00;99.90
13482;DHT22;6813;60.352;15.746;2023-08-20T07:06:51;15.10;99.90
13482;DHT22;6813;60.352;15.746;2023-08-20T07:09:17;15.20;99.90
13482;DHT22;6813;60.352;15.746;2023-08-20T07:11:43;15.30;99.90
13482;DHT22;6813;60.352;15.746;2023-08-20T07:14:08;15.10;99.90
13482;DHT22;6813;60.352;15.746;2023-08-20T07:16:34;15.10;99.90
13482;DHT22;6813;60.352;15.746;2023-08-20T07:19:00;15.00;99.90
13482;DHT22;6813;60.352;15.746;2023-08-20T07:21:25;15.10;99.90
13482;DHT22;6813;60.352;15.746;2023-08-20T07:23:51;15.10;99.90
13482;DHT22;6813;60.352;15.746;2023-08-20T07:26:17;15.10;99.90
13482;DHT22;6813;60.352;15.746;2023-08-20T07:28:42;15.10;99.90
13482;DHT22;6813;60.352;15.746;2023-08-20T07:31:27;15.20;99.90
13482;DHT22;6813;60.352;15.746;2023-08-20T07:33:54;15.20;99.90
13482;DHT22;6813;60.352;15.746;2023-08-20T07:36:22;15.20;99.90
13482;DHT22;6813;60.352;15.746;2023-08-20T07:38:48;15.30;99.90
13482;DHT22;6813;60.352;15.746;2023-08-20T07:41:14;15.30;99.90
13482;DHT22;6813;60.352;15.746;2023-08-20T07:43:41;15.30;99.90
13482;DHT22;6813;60.352;15.746;2023-08-20T07:46:07;15.30;99.90
13482;DHT22;6813;60.352;15.746;2023-08-20T07:48:34;15.30;99.90
13482;DHT22;6813;60.352;15.746;2023-08-20T07:51:00;15.30;99.90
13482;DHT22;6813;60.352;15.746;2023-08-20T07:53:26;15.30;99.90
13482;DHT22;6813;60.352;15.746;2023-08-20T07:55:52;15.30;99.90
13482;DHT22;6813;60.352;15.746;2023-08-20T07:58:17;15.30;99.90
13482;DHT22;6813;60.352;15.746;2023-08-20T08:00:43;15.30;99.90
13482;DHT22;6813;60.352;15.746;2023-08-20T08:03:09;15.40;99.90
13482;DHT22;6813;60.352;15.746;2023-08-20T08:05:35;15.40;99.90
13482;DHT22;6813;60.352;15.746;2023-08-20T08:08:02;15.40;99.90
13482;DHT22;6813;60.352;15.746;2023-08-20T08:10:28;15.40;99.90
13482;DHT22;6813;60.352;15.746;2023-08-20T08:12:54;15.40;99.90
13482;DHT22;6813;60.352;15.746;2023-08-20T08:15:20;15.40;99.90
13482;DHT22;6813;60.352;15.746;2023-08-20T08:17:45;15.40;99.90
13482;DHT22;6813;60.352;15.746;2023-08-20T08:20:11;15.50;99.90
13482;DHT22;6813;60.352;15.746;2023-08-20T08:22:37;15.40;99.90
13482;DHT22;6813;60.352;15.746;2023-08-20T08:25:02;15.20;99.90
13482;DHT22;6813;60.352;15.746;2023-08-20T08:27:28;15.20;99.90
13482;DHT22;6813;60.352;15.746;2023-08-20T08:29:54;15.20;99.90
13482;DHT22;6813;60.352;15.746;2023-08-20T08:32:20;15.20;99.90
13482;DHT22;6813;60.352;15.746;2023-08-20T08:34:45;15.20;99.90
13482;DHT22;6813;60.352;15.746;2023-08-20T08:37:11;15.30;99.90
13482;DHT22;6813;60.352;15.746;2023-08-20T08:39:37;15.30;99.90
13482;DHT22;6813;60.352;15.746;2023-08-20T08:42:04;15.30;99.90
13482;DHT22;6813;60.352;15.746;2023-08-20T08:44:33;15.30;99.90
13482;DHT22;6813;60.352;15.746;2023-08-20T08:46:59;15.40;99.90
13482;DHT22;6813;60.352;15.746;2023-08-20T08:49:25;15.40;99.90
13482;DHT22;6813;60.352;15.746;2023-08-20T08:51:57;15.50;99.90
13482;DHT22;6813;60.352;15.746;2023-08-20T08:54:23;15.40;99.90
13482;DHT22;6813;60.352;15.746;2023-08-20T08:56:50;15.30;99.90
13482;DHT22;6813;60.352;15.746;2023-08-20T08:59:15;15.20;99.90
13482;DHT22;6813;60.352;15.746;2023-08-20T09:01:41;15.20;99.90
13482;DHT22;6813;60.352;15.746;2023-08-20T09:04:07;15.10;99.90
13482;DHT22;6813;60.352;15.746;2023-08-20T09:06:50;15.10;99.90
13482;DHT22;6813;60.352;15.746;2023-08-20T09:09:20;15.10;99.90
13482;DHT22;6813;60.352;15.746;2023-08-20T09:11:46;15.10;99.90
13482;DHT22;6813;60.352;15.746;2023-08-20T09:14:29;15.20;99.90
13482;DHT22;6813;60.352;15.746;2023-08-20T09:16:59;15.30;99.90
13482;DHT22;6813;60.352;15.746;2023-08-20T09:19:28;15.30;99.90
13482;DHT22;6813;60.352;15.746;2023-08-20T09:21:54;15.40;99.90
13482;DHT22;6813;60.352;15.746;2023-08-20T09:24:54;15.40;99.90
13482;DHT22;6813;60.352;15.746;2023-08-20T09:27:21;15.50;99.90
13482;DHT22;6813;60.352;15.746;2023-08-20T09:29:51;15.50;99.90
13482;DHT22;6813;60.352;15.746;2023-08-20T09:32:24;15.60;99.90
13482;DHT22;6813;60.352;15.746;2023-08-20T09:34:51;15.70;99.90
13482;DHT22;6813;60.352;15.746;2023-08-20T09:37:19;15.60;99.90
13482;DHT22;6813;60.352;15.746;2023-08-20T09:39:45;15.60;99.90
13482;DHT22;6813;60.352;15.746;2023-08-20T09:42:12;15.70;99.90
13482;DHT22;6813;60.352;15.746;2023-08-20T09:44:41;15.80;99.90
13482;DHT22;6813;60.352;15.746;2023-08-20T09:47:08;15.80;99.90
13482;DHT22;6813;60.352;15.746;2023-08-20T09:49:55;15.80;99.90
13482;DHT22;6813;60.352;15.746;2023-08-20T09:52:42;15.80;99.90
13482;DHT22;6813;60.352;15.746;2023-08-20T09:55:14;15.70;99.90
13482;DHT22;6813;60.352;15.746;2023-08-20T09:57:42;15.80;99.90
13482;DHT22;6813;60.352;15.746;2023-08-20T10:00:09;15.80;99.90
13482;DHT22;6813;60.352;15.746;2023-08-20T10:02:35;15.70;99.90
13482;DHT22;6813;60.352;15.746;2023-08-20T10:05:03;15.70;99.90
13482;DHT22;6813;60.352;15.746;2023-08-20T10:07:32;15.70;99.90
13482;DHT22;6813;60.352;15.746;2023-08-20T10:10:03;15.80;99.90
13482;DHT22;6813;60.352;15.746;2023-08-20T10:12:32;15.70;99.90
13482;DHT22;6813;60.352;15.746;2023-08-20T10:15:00;15.70;99.90
13482;DHT22;6813;60.352;15.746;2023-08-20T10:17:33;15.70;99.90
13482;DHT22;6813;60.352;15.746;2023-08-20T10:20:02;15.70;99.90
13482;DHT22;6813;60.352;15.746;2023-08-20T10:22:40;15.70;99.90
13482;DHT22;6813;60.352;15.746;2023-08-20T10:25:27;15.80;99.90
13482;DHT22;6813;60.352;15.746;2023-08-20T10:28:28;15.80;99.90
13482;DHT22;6813;60.352;15.746;2023-08-20T10:31:15;15.90;99.90
13482;DHT22;6813;60.352;15.746;2023-08-20T10:36:18;16.10;99.90
13482;DHT22;6813;60.352;15.746;2023-08-20T10:38:49;16.10;99.90
13482;DHT22;6813;60.352;15.746;2023-08-20T10:41:15;16.10;99.90
13482;DHT22;6813;60.352;15.746;2023-08-20T10:43:47;16.10;99.90
13482;DHT22;6813;60.352;15.746;2023-08-20T10:46:22;16.20;99.90
13482;DHT22;6813;60.352;15.746;2023-08-20T10:49:07;16.20;99.90
13482;DHT22;6813;60.352;15.746;2023-08-20T10:51:36;16.30;99.90
13482;DHT22;6813;60.352;15.746;2023-08-20T10:54:08;16.40;99.90
13482;DHT22;6813;60.352;15.746;2023-08-20T10:56:55;16.30;99.90
13482;DHT22;6813;60.352;15.746;2023-08-20T10:59:28;16.40;99.90
13482;DHT22;6813;60.352;15.746;2023-08-20T11:01:57;16.40;99.90
13482;DHT22;6813;60.352;15.746;2023-08-20T11:04:24;16.50;99.90
13482;DHT22;6813;60.352;15.746;2023-08-20T11:06:57;16.40;99.90
13482;DHT22;6813;60.352;15.746;2023-08-20T11:09:24;16.40;99.90
13482;DHT22;6813;60.352;15.746;2023-08-20T11:11:51;16.50;99.90
13482;DHT22;6813;60.352;15.746;2023-08-20T11:14:18;16.30;99.90
13482;DHT22;6813;60.352;15.746;2023-08-20T11:16:45;16.40;99.90
13482;DHT22;6813;60.352;15.746;2023-08-20T11:19:12;16.40;99.90
13482;DHT22;6813;60.352;15.746;2023-08-20T11:21:39;16.40;99.90
13482;DHT22;6813;60.352;15.746;2023-08-20T11:24:06;16.50;99.90
13482;DHT22;6813;60.352;15.746;2023-08-20T11:26:35;16.50;99.90
13482;DHT22;6813;60.352;15.746;2023-08-20T11:29:06;16.50;99.90
13482;DHT22;6813;60.352;15.746;2023-08-20T11:31:32;16.60;99.90
13482;DHT22;6813;60.352;15.746;2023-08-20T11:33:58;16.50;99.90
13482;DHT22;6813;60.352;15.746;2023-08-20T11:36:24;16.50;99.90
13482;DHT22;6813;60.352;15.746;2023-08-20T11:38:51;16.50;99.90
13482;DHT22;6813;60.352;15.746;2023-08-20T11:41:21;16.40;99.90
13482;DHT22;6813;60.352;15.746;2023-08-20T11:43:48;16.40;99.90
13482;DHT22;6813;60.352;15.746;2023-08-20T11:46:20;16.40;99.90
13482;DHT22;6813;60.352;15.746;2023-08-20T11:49:03;16.40;99.90
13482;DHT22;6813;60.352;15.746;2023-08-20T11:51:32;16.30;99.90
13482;DHT22;6813;60.352;15.746;2023-08-20T11:54:00;16.40;99.90
13482;DHT22;6813;60.352;15.746;2023-08-20T11:56:27;16.40;99.90
13482;DHT22;6813;60.352;15.746;2023-08-20T11:58:52;16.40;99.90
13482;DHT22;6813;60.352;15.746;2023-08-20T12:01:19;16.40;99.90
13482;DHT22;6813;60.352;15.746;2023-08-20T12:03:45;16.40;99.90
13482;DHT22;6813;60.352;15.746;2023-08-20T12:06:20;16.40;99.90
13482;DHT22;6813;60.352;15.746;2023-08-20T12:08:48;16.40;99.90
13482;DHT22;6813;60.352;15.746;2023-08-20T12:11:13;16.40;99.90
13482;DHT22;6813;60.352;15.746;2023-08-20T12:13:40;16.30;99.90
13482;DHT22;6813;60.352;15.746;2023-08-20T12:16:06;16.30;99.90
13482;DHT22;6813;60.352;15.746;2023-08-20T12:18:32;16.30;99.90
13482;DHT22;6813;60.352;15.746;2023-08-20T12:20:58;16.50;99.90
13482;DHT22;6813;60.352;15.746;2023-08-20T12:23:24;16.50;99.90
13482;DHT22;6813;60.352;15.746;2023-08-20T12:25:52;16.70;99.90
13482;DHT22;6813;60.352;15.746;2023-08-20T12:28:19;16.70;99.90
13482;DHT22;6813;60.352;15.746;2023-08-20T12:30:44;16.70;99.90
13482;DHT22;6813;60.352;15.746;2023-08-20T12:33:11;16.70;99.90
13482;DHT22;6813;60.352;15.746;2023-08-20T12:35:38;16.60;99.90
13482;DHT22;6813;60.352;15.746;2023-08-20T12:38:04;16.70;99.90
13482;DHT22;6813;60.352;15.746;2023-08-20T12:40:30;16.60;99.90
13482;DHT22;6813;60.352;15.746;2023-08-20T12:42:56;16.60;99.90
13482;DHT22;6813;60.352;15.746;2023-08-20T12:45:22;16.60;99.90
13482;DHT22;6813;60.352;15.746;2023-08-20T12:47:48;16.70;99.90
13482;DHT22;6813;60.352;15.746;2023-08-20T12:50:14;16.60;99.90
13482;DHT22;6813;60.352;15.746;2023-08-20T12:52:40;16.70;99.90
13482;DHT22;6813;60.352;15.746;2023-08-20T12:55:06;16.80;99.90
13482;DHT22;6813;60.352;15.746;2023-08-20T12:57:34;16.90;99.90
13482;DHT22;6813;60.352;15.746;2023-08-20T13:00:02;16.80;99.90
13482;DHT22;6813;60.352;15.746;2023-08-20T13:02:33;16.90;99.90
13482;DHT22;6813;60.352;15.746;2023-08-20T13:04:59;17.00;99.90
13482;DHT22;6813;60.352;15.746;2023-08-20T13:07:25;17.00;99.90
13482;DHT22;6813;60.352;15.746;2023-08-20T13:09:50;17.00;99.90
13482;DHT22;6813;60.352;15.746;2023-08-20T13:12:18;16.80;99.90
13482;DHT22;6813;60.352;15.746;2023-08-20T13:14:46;16.70;99.90
13482;DHT22;6813;60.352;15.746;2023-08-20T13:17:12;16.50;99.90
13482;DHT22;6813;60.352;15.746;2023-08-20T13:19:38;16.40;99.90
13482;DHT22;6813;60.352;15.746;2023-08-20T13:22:04;16.40;99.90
13482;DHT22;6813;60.352;15.746;2023-08-20T13:24:30;16.30;99.90
13482;DHT22;6813;60.352;15.746;2023-08-20T13:26:55;16.30;99.90
13482;DHT22;6813;60.352;15.746;2023-08-20T13:29:22;16.30;99.90
13482;DHT22;6813;60.352;15.746;2023-08-20T13:31:49;16.30;99.90
13482;DHT22;6813;60.352;15.746;2023-08-20T13:34:14;16.30;99.90
13482;DHT22;6813;60.352;15.746;2023-08-20T13:36:40;16.30;99.90
13482;DHT22;6813;60.352;15.746;2023-08-20T13:39:06;16.20;99.90
13482;DHT22;6813;60.352;15.746;2023-08-20T13:41:32;16.20;99.90
13482;DHT22;6813;60.352;15.746;2023-08-20T13:43:57;16.20;99.90
13482;DHT22;6813;60.352;15.746;2023-08-20T13:46:23;16.10;99.90
13482;DHT22;6813;60.352;15.746;2023-08-20T13:48:49;16.10;99.90
13482;DHT22;6813;60.352;15.746;2023-08-20T13:51:14;16.10;99.90
13482;DHT22;6813;60.352;15.746;2023-08-20T13:53:40;16.10;99.90
13482;DHT22;6813;60.352;15.746;2023-08-20T13:56:07;16.10;99.90
13482;DHT22;6813;60.352;15.746;2023-08-20T13:58:33;16.10;99.90
13482;DHT22;6813;60.352;15.746;2023-08-20T14:00:59;16.10;99.90
13482;DHT22;6813;60.352;15.746;2023-08-20T14:03:24;16.10;99.90
13482;DHT22;6813;60.352;15.746;2023-08-20T14:05:50;16.10;99.90
13482;DHT22;6813;60.352;15.746;2023-08-20T14:08:16;16.10;99.90
13482;DHT22;6813;60.352;15.746;2023-08-20T14:10:41;16.10;99.90
13482;DHT22;6813;60.352;15.746;2023-08-20T14:13:07;16.10;99.90
13482;DHT22;6813;60.352;15.746;2023-08-20T14:15:33;16.10;99.90
13482;DHT22;6813;60.352;15.746;2023-08-20T14:17:59;16.10;99.90
13482;DHT22;6813;60.352;15.746;2023-08-20T14:20:25;16.10;99.90
13482;DHT22;6813;60.352;15.746;2023-08-20T14:22:50;16.20;99.90
13482;DHT22;6813;60.352;15.746;2023-08-20T14:25:16;16.20;99.90
13482;DHT22;6813;60.352;15.746;2023-08-20T14:27:42;16.20;99.90
13482;DHT22;6813;60.352;15.746;2023-08-20T14:30:08;16.20;99.90
13482;DHT22;6813;60.352;15.746;2023-08-20T14:32:34;16.20;99.90
13482;DHT22;6813;60.352;15.746;2023-08-20T14:34:59;16.20;99.90
13482;DHT22;6813;60.352;15.746;2023-08-20T14:37:25;16.30;99.90
13482;DHT22;6813;60.352;15.746;2023-08-20T14:39:51;16.30;99.90
13482;DHT22;6813;60.352;15.746;2023-08-20T14:42:17;16.40;99.90
13482;DHT22;6813;60.352;15.746;2023-08-20T14:44:43;16.40;99.90
13482;DHT22;6813;60.352;15.746;2023-08-20T14:47:09;16.40;99.90
13482;DHT22;6813;60.352;15.746;2023-08-20T14:49:40;16.40;99.90
13482;DHT22;6813;60.352;15.746;2023-08-20T14:52:06;16.30;99.90
13482;DHT22;6813;60.352;15.746;2023-08-20T14:54:32;16.40;99.90
13482;DHT22;6813;60.352;15.746;2023-08-20T14:56:58;16.40;99.90
13482;DHT22;6813;60.352;15.746;2023-08-20T14:59:23;16.40;99.90
13482;DHT22;6813;60.352;15.746;2023-08-20T15:01:49;16.40;99.90
13482;DHT22;6813;60.352;15.746;2023-08-20T15:04:15;16.50;99.90
13482;DHT22;6813;60.352;15.746;2023-08-20T15:06:40;16.60;99.90
13482;DHT22;6813;60.352;15.746;2023-08-20T15:09:06;16.60;99.90
13482;DHT22;6813;60.352;15.746;2023-08-20T15:11:35;16.60;99.90
13482;DHT22;6813;60.352;15.746;2023-08-20T15:14:01;16.70;99.90
13482;DHT22;6813;60.352;15.746;2023-08-20T15:16:26;16.80;99.90
13482;DHT22;6813;60.352;15.746;2023-08-20T15:18:52;17.00;99.90
13482;DHT22;6813;60.352;15.746;2023-08-20T15:21:18;17.00;99.90
13482;DHT22;6813;60.352;15.746;2023-08-20T15:23:44;17.00;99.90
13482;DHT22;6813;60.352;15.746;2023-08-20T15:26:10;16.90;99.90
13482;DHT22;6813;60.352;15.746;2023-08-20T15:28:35;16.90;99.90
13482;DHT22;6813;60.352;15.746;2023-08-20T15:31:01;16.90;99.90
13482;DHT22;6813;60.352;15.746;2023-08-20T15:33:27;16.90;99.90
13482;DHT22;6813;60.352;15.746;2023-08-20T15:35:53;16.80;99.90
13482;DHT22;6813;60.352;15.746;2023-08-20T15:38:18;16.80;99.90